createdAt,value
2023-02-11T00:01:29.341Z,3.50
2023-02-11T00:04:00.130Z,3.60
2023-02-11T00:06:30.741Z,3.60
2023-02-11T00:08:59.147Z,3.70
2023-02-11T00:11:30.787Z,3.70
2023-02-11T00:14:00.819Z,3.70
2023-02-11T00:16:29.853Z,3.80
2023-02-11T00:19:00.734Z,3.80
2023-02-11T00:21:29.498Z,3.80
2023-02-11T00:23:59.903Z,3.90
2023-02-11T00:26:31.550Z,3.90
2023-02-11T00:29:00.951Z,3.90
2023-02-11T00:31:30.274Z,3.90
2023-02-11T00:34:00.137Z,3.90
2023-02-11T00:36:29.936Z,4.00
2023-02-11T00:38:59.705Z,4.00
2023-02-11T00:41:29.737Z,4.00
2023-02-11T00:44:00.866Z,4.10
2023-02-11T00:46:29.421Z,4.00
2023-02-11T00:48:59.197Z,4.00
2023-02-11T00:51:28.936Z,4.00
2023-02-11T00:53:57.858Z,4.10
2023-02-11T00:56:26.648Z,4.10
2023-02-11T00:58:55.134Z,4.50
2023-02-11T01:01:23.706Z,4.00
2023-02-11T01:03:52.257Z,4.00
2023-02-11T01:06:21.971Z,4.00
2023-02-11T01:08:50.497Z,4.00
2023-02-11T01:11:21.785Z,4.00
2023-02-11T01:13:51.356Z,3.90
2023-02-11T01:16:21.419Z,3.90
2023-02-11T01:18:50.476Z,3.90
2023-02-11T01:21:20.947Z,3.90
2023-02-11T01:23:49.443Z,3.90
2023-02-11T01:26:17.917Z,3.80
2023-02-11T01:28:46.421Z,3.80
2023-02-11T01:31:15.449Z,4.10
2023-02-11T01:33:43.961Z,3.80
2023-02-11T01:36:13.114Z,3.80
2023-02-11T01:38:44.542Z,3.80
2023-02-11T01:41:15.976Z,3.80
2023-02-11T01:43:48.394Z,3.80
2023-02-11T01:46:31.219Z,3.80
2023-02-11T01:49:06.225Z,3.80
2023-02-11T01:51:40.347Z,3.80
2023-02-11T01:54:31.603Z,3.80
2023-02-11T01:57:19.443Z,3.80
2023-02-11T02:00:02.579Z,3.80
2023-02-11T02:02:48.957Z,3.80
2023-02-11T02:05:27.344Z,3.80
2023-02-11T02:08:04.120Z,3.80
2023-02-11T02:10:37.106Z,3.80
2023-02-11T02:13:05.567Z,3.80
2023-02-11T02:15:35.954Z,3.80
2023-02-11T02:18:18.808Z,3.80
2023-02-11T02:21:31.520Z,3.80
2023-02-11T02:24:26.962Z,3.80
2023-02-11T02:27:27.715Z,3.80
2023-02-11T02:30:27.172Z,3.80
2023-02-11T02:33:25.698Z,3.80
2023-02-11T02:36:07.243Z,3.80
2023-02-11T02:38:41.754Z,3.80
2023-02-11T02:41:13.766Z,3.80
2023-02-11T02:43:46.287Z,3.80
2023-02-11T02:46:17.713Z,3.80
2023-02-11T02:48:49.534Z,3.80
2023-02-11T02:52:00.019Z,3.80
2023-02-11T02:55:08.749Z,3.80
2023-02-11T02:57:51.221Z,3.80
2023-02-11T03:00:29.826Z,3.80
2023-02-11T03:03:17.309Z,3.80
2023-02-11T03:05:54.940Z,3.80
2023-02-11T03:08:31.116Z,3.80
2023-02-11T03:11:02.881Z,3.80
2023-02-11T03:13:35.986Z,3.90
2023-02-11T03:16:10.876Z,3.90
2023-02-11T03:18:45.098Z,3.90
2023-02-11T03:21:17.918Z,3.90
2023-02-11T03:23:51.860Z,3.90
2023-02-11T03:26:30.839Z,3.90
2023-02-11T03:29:05.934Z,4.00
2023-02-11T03:31:43.453Z,4.00
2023-02-11T03:34:17.415Z,4.00
2023-02-11T03:36:53.326Z,4.00
2023-02-11T03:39:26.775Z,4.00
2023-02-11T03:41:59.260Z,4.00
2023-02-11T03:44:38.802Z,4.00
2023-02-11T03:47:10.801Z,4.10
2023-02-11T03:49:40.849Z,4.40
2023-02-11T03:52:12.399Z,4.10
2023-02-11T03:54:43.635Z,4.20
2023-02-11T03:57:12.106Z,4.20
2023-02-11T03:59:55.779Z,4.20
2023-02-11T04:02:28.629Z,4.20
2023-02-11T04:04:57.128Z,4.20
2023-02-11T04:07:27.480Z,4.10
2023-02-11T04:09:55.894Z,4.30
2023-02-11T04:12:24.322Z,4.30
2023-02-11T04:14:52.758Z,4.30
2023-02-11T04:17:21.063Z,4.40
2023-02-11T04:19:49.414Z,4.40
2023-02-11T04:22:17.820Z,4.40
2023-02-11T04:24:47.493Z,4.40
2023-02-11T04:27:15.816Z,4.70
2023-02-11T04:29:44.268Z,4.50
2023-02-11T04:32:13.212Z,4.50
2023-02-11T04:34:41.791Z,4.60
2023-02-11T04:37:11.246Z,4.60
2023-02-11T04:39:39.578Z,5.20
2023-02-11T04:42:09.518Z,4.60
2023-02-11T04:44:37.945Z,4.60
2023-02-11T04:47:06.380Z,4.60
2023-02-11T04:49:34.741Z,5.00
2023-02-11T04:52:03.132Z,4.70
2023-02-11T04:54:31.491Z,5.50
2023-02-11T04:56:59.864Z,4.80
2023-02-11T04:59:29.866Z,4.90
2023-02-11T05:01:58.216Z,5.00
2023-02-11T05:04:26.731Z,5.00
2023-02-11T05:06:57.079Z,5.10
2023-02-11T05:09:26.711Z,5.20
2023-02-11T05:11:55.139Z,5.30
2023-02-11T05:14:23.459Z,5.40
2023-02-11T05:16:53.343Z,5.50
2023-02-11T05:19:21.793Z,5.50
2023-02-11T05:22:01.805Z,5.60
2023-02-11T05:24:31.077Z,5.70
2023-02-11T05:26:59.375Z,5.80
2023-02-11T05:29:27.863Z,6.00
2023-02-11T05:31:57.604Z,5.90
2023-02-11T05:34:25.959Z,6.00
2023-02-11T05:36:54.442Z,6.20
2023-02-11T05:39:23.118Z,6.10
2023-02-11T05:41:51.422Z,6.20
2023-02-11T05:44:19.725Z,6.20
2023-02-11T05:46:49.213Z,6.20
2023-02-11T05:49:19.572Z,6.30
2023-02-11T05:51:47.999Z,6.30
2023-02-11T05:54:16.948Z,6.30
2023-02-11T05:56:45.329Z,6.30
2023-02-11T05:59:15.079Z,6.30
2023-02-11T06:01:43.771Z,6.40
2023-02-11T06:04:12.200Z,6.40
2023-02-11T06:06:41.983Z,6.40
2023-02-11T06:09:11.874Z,6.40
2023-02-11T06:11:40.465Z,6.40
2023-02-11T06:14:09.957Z,6.50
2023-02-11T06:16:38.677Z,6.50
2023-02-11T06:19:07.297Z,6.60
2023-02-11T06:21:43.559Z,6.50
2023-02-11T06:24:14.176Z,6.50
2023-02-11T06:26:42.728Z,6.50
2023-02-11T06:29:11.254Z,6.50
2023-02-11T06:31:40.004Z,6.70
2023-02-11T06:34:09.353Z,6.70
2023-02-11T06:36:40.065Z,6.60
2023-02-11T06:39:08.950Z,6.50
2023-02-11T06:41:38.922Z,6.50
2023-02-11T06:44:07.972Z,6.60
2023-02-11T06:46:36.585Z,6.60
2023-02-11T06:49:04.906Z,6.40
2023-02-11T06:51:33.211Z,6.50
2023-02-11T06:54:01.642Z,6.50
2023-02-11T06:56:30.432Z,6.50
2023-02-11T06:59:00.788Z,6.60
2023-02-11T07:01:29.742Z,6.60
2023-02-11T07:03:58.264Z,6.70
2023-02-11T07:06:29.027Z,6.60
2023-02-11T07:08:57.815Z,6.60
2023-02-11T07:11:29.375Z,6.60
2023-02-11T07:14:02.333Z,6.70
2023-02-11T07:16:31.104Z,6.70
2023-02-11T07:18:59.678Z,6.70
2023-02-11T07:21:28.881Z,6.70
2023-02-11T07:23:57.151Z,7.70
2023-02-11T07:26:27.047Z,7.00
2023-02-11T07:28:55.554Z,6.80
2023-02-11T07:31:28.166Z,6.80
2023-02-11T07:33:59.895Z,6.80
2023-02-11T07:36:29.735Z,6.90
2023-02-11T07:38:58.151Z,6.80
2023-02-11T07:41:28.453Z,6.90
2023-02-11T07:43:56.806Z,6.90
2023-02-11T07:46:28.725Z,7.20
2023-02-11T07:48:57.741Z,6.90
2023-02-11T07:51:28.635Z,6.90
2023-02-11T07:53:59.451Z,7.00
2023-02-11T07:56:29.370Z,7.00
2023-02-11T07:59:03.343Z,7.00
2023-02-11T08:01:33.298Z,7.00
2023-02-11T08:04:03.713Z,7.00
2023-02-11T08:06:35.578Z,7.00
2023-02-11T08:09:08.985Z,7.00
2023-02-11T08:11:37.569Z,7.00
2023-02-11T08:14:06.040Z,7.10
2023-02-11T08:16:38.888Z,7.00
2023-02-11T08:19:12.268Z,7.00
2023-02-11T08:21:41.379Z,7.10
2023-02-11T08:24:10.449Z,7.00
2023-02-11T08:26:39.288Z,7.00
2023-02-11T08:29:11.124Z,7.20
2023-02-11T08:31:43.554Z,7.00
2023-02-11T08:34:14.196Z,7.00
2023-02-11T08:36:44.779Z,7.10
2023-02-11T08:39:19.755Z,7.10
2023-02-11T08:41:50.693Z,7.40
2023-02-11T08:44:20.025Z,7.10
2023-02-11T08:46:50.698Z,7.10
2023-02-11T08:49:19.806Z,7.10
2023-02-11T08:51:48.387Z,7.10
2023-02-11T08:54:17.358Z,7.90
2023-02-11T08:56:46.577Z,7.10
2023-02-11T08:59:17.783Z,7.20
2023-02-11T09:01:47.356Z,7.30
2023-02-11T09:04:17.131Z,7.20
2023-02-11T09:06:46.184Z,7.40
2023-02-11T09:09:16.365Z,7.20
2023-02-11T09:11:45.984Z,7.40
2023-02-11T09:14:19.629Z,7.50
2023-02-11T09:16:48.853Z,7.50
2023-02-11T09:19:19.405Z,7.30
2023-02-11T09:21:48.025Z,7.30
2023-02-11T09:24:16.846Z,7.30
2023-02-11T09:26:45.404Z,7.40
2023-02-11T09:29:14.569Z,7.30
2023-02-11T09:31:43.001Z,7.30
2023-02-11T09:34:12.981Z,7.50
2023-02-11T09:36:43.242Z,7.40
2023-02-11T09:39:17.038Z,7.50
2023-02-11T09:42:41.831Z,7.40
2023-02-11T09:45:19.150Z,7.50
2023-02-11T09:47:54.248Z,7.50
2023-02-11T09:50:30.766Z,7.70
2023-02-11T09:53:04.251Z,7.50
2023-02-11T09:55:37.774Z,7.70
2023-02-11T09:58:13.555Z,7.60
2023-02-11T10:00:46.558Z,7.60
2023-02-11T10:04:00.178Z,7.60
2023-02-11T10:06:44.627Z,7.60
2023-02-11T10:09:46.782Z,7.60
2023-02-11T10:12:38.203Z,7.60
2023-02-11T10:15:25.885Z,7.60
2023-02-11T10:18:13.359Z,7.80
2023-02-11T10:20:50.861Z,7.90
2023-02-11T10:23:24.757Z,7.80
2023-02-11T10:25:57.506Z,7.60
2023-02-11T10:28:31.253Z,7.90
2023-02-11T10:31:02.871Z,7.70
2023-02-11T10:33:36.776Z,7.70
2023-02-11T10:36:06.498Z,7.70
2023-02-11T10:38:36.448Z,7.70
2023-02-11T10:41:06.679Z,7.90
2023-02-11T10:43:36.384Z,7.70
2023-02-11T10:46:06.743Z,7.70
2023-02-11T10:48:41.783Z,7.70
2023-02-11T10:51:23.328Z,7.70
2023-02-11T10:54:13.878Z,7.80
2023-02-11T10:56:50.091Z,7.80
2023-02-11T10:59:25.718Z,7.80
2023-02-11T11:01:59.134Z,7.80
2023-02-11T11:04:42.284Z,7.80
2023-02-11T11:07:23.440Z,7.80
2023-02-11T11:09:55.841Z,7.90
2023-02-11T11:12:36.645Z,7.90
2023-02-11T11:15:21.827Z,7.90
2023-02-11T11:17:51.095Z,7.90
2023-02-11T11:20:28.502Z,7.90
2023-02-11T11:23:17.219Z,8.20
2023-02-11T11:25:58.547Z,8.10
2023-02-11T11:28:31.124Z,8.00
2023-02-11T11:31:01.744Z,8.00
2023-02-11T11:33:35.030Z,8.10
2023-02-11T11:36:08.778Z,8.30
2023-02-11T11:38:43.841Z,8.10
2023-02-11T11:41:31.707Z,8.10
2023-02-11T11:44:09.509Z,8.10
2023-02-11T11:46:43.335Z,8.20
2023-02-11T11:49:24.334Z,8.20
2023-02-11T11:52:03.020Z,8.20
2023-02-11T11:54:37.927Z,8.20
2023-02-11T11:57:14.715Z,8.20
2023-02-11T11:59:44.618Z,8.30
2023-02-11T12:02:57.491Z,8.30
2023-02-11T12:05:29.330Z,8.30
2023-02-11T12:08:11.955Z,8.30
2023-02-11T12:11:10.074Z,8.30
2023-02-11T12:14:07.721Z,8.40
2023-02-11T12:16:50.406Z,8.40
2023-02-11T12:19:54.947Z,8.50
2023-02-11T12:22:39.437Z,8.40
2023-02-11T12:25:28.216Z,8.50
2023-02-11T12:28:11.878Z,8.50
2023-02-11T12:30:58.281Z,8.50
2023-02-11T12:33:54.941Z,8.50
2023-02-11T12:36:40.300Z,8.50
2023-02-11T12:39:27.367Z,8.60
2023-02-11T12:42:40.337Z,8.60
2023-02-11T12:45:22.921Z,8.60
2023-02-11T12:48:08.998Z,8.60
2023-02-11T12:50:48.830Z,8.60
2023-02-11T12:53:45.834Z,8.60
2023-02-11T12:56:21.238Z,8.60
2023-02-11T12:58:51.999Z,8.70
2023-02-11T13:01:23.970Z,8.60
2023-02-11T13:03:57.992Z,8.60
2023-02-11T13:06:36.726Z,8.60
2023-02-11T13:09:11.978Z,8.80
2023-02-11T13:11:44.500Z,8.70
2023-02-11T13:14:23.581Z,8.70
2023-02-11T13:16:52.619Z,8.70
2023-02-11T13:19:28.326Z,8.70
2023-02-11T13:22:08.087Z,8.70
2023-02-11T13:24:45.364Z,8.70
2023-02-11T13:27:29.958Z,8.70
2023-02-11T13:30:26.066Z,8.80
2023-02-11T13:33:23.055Z,8.70
2023-02-11T13:36:23.695Z,8.70
2023-02-11T13:39:02.207Z,8.70
2023-02-11T13:41:38.220Z,8.70
2023-02-11T13:44:30.692Z,8.70
2023-02-11T13:47:02.334Z,8.70
2023-02-11T13:49:41.112Z,8.70
2023-02-11T13:52:26.278Z,8.70
2023-02-11T13:54:58.236Z,8.70
2023-02-11T13:57:34.865Z,8.70
2023-02-11T14:00:49.858Z,8.70
2023-02-11T14:03:48.840Z,8.70
2023-02-11T14:07:01.283Z,8.70
2023-02-11T14:09:41.910Z,8.70
2023-02-11T14:12:34.937Z,8.90
2023-02-11T14:15:26.685Z,8.70
2023-02-11T14:17:55.161Z,8.80
2023-02-11T14:20:45.379Z,8.80
2023-02-11T14:23:27.516Z,8.80
2023-02-11T14:26:30.118Z,8.80
2023-02-11T14:29:08.192Z,8.80
2023-02-11T14:31:43.947Z,8.80
2023-02-11T14:34:44.884Z,8.80
2023-02-11T14:37:27.026Z,8.80
2023-02-11T14:40:04.626Z,8.80
2023-02-11T14:42:35.794Z,8.80
2023-02-11T14:45:09.239Z,8.80
2023-02-11T14:47:44.319Z,8.80
2023-02-11T14:50:21.206Z,8.80
2023-02-11T14:52:51.189Z,8.80
2023-02-11T14:55:33.248Z,8.80
2023-02-11T14:58:18.554Z,8.80
2023-02-11T15:00:57.307Z,8.90
2023-02-11T15:03:40.450Z,9.00
2023-02-11T15:06:18.817Z,8.80
2023-02-11T15:08:52.759Z,8.80
2023-02-11T15:11:24.088Z,8.90
2023-02-11T15:13:55.553Z,8.80
2023-02-11T15:16:26.630Z,8.80
2023-02-11T15:18:58.025Z,8.90
2023-02-11T15:21:29.908Z,8.80
2023-02-11T15:24:01.534Z,8.80
2023-02-11T15:26:30.809Z,8.90
2023-02-11T15:29:00.926Z,8.80
2023-02-11T15:31:31.230Z,8.80
2023-02-11T15:34:08.970Z,8.80
2023-02-11T15:36:38.979Z,8.80
2023-02-11T15:39:31.577Z,8.80
2023-02-11T15:42:22.644Z,8.80
2023-02-11T15:45:12.891Z,8.80
2023-02-11T15:47:43.800Z,8.80
2023-02-11T15:50:23.043Z,8.80
2023-02-11T15:52:52.067Z,8.80
2023-02-11T15:55:21.219Z,8.80
2023-02-11T15:57:55.070Z,8.70
2023-02-11T16:00:33.734Z,8.70
2023-02-11T16:03:02.295Z,8.70
2023-02-11T16:05:35.785Z,8.90
2023-02-11T16:08:22.250Z,8.80
2023-02-11T16:10:59.187Z,8.70
2023-02-11T16:13:30.721Z,8.70
2023-02-11T16:16:04.745Z,8.70
2023-02-11T16:18:39.362Z,8.70
2023-02-11T16:21:17.775Z,8.70
2023-02-11T16:23:53.829Z,8.70
2023-02-11T16:26:28.159Z,8.70
2023-02-11T16:29:06.421Z,8.70
2023-02-11T16:31:39.709Z,8.70
2023-02-11T16:34:17.069Z,8.70
2023-02-11T16:36:46.354Z,8.70
2023-02-11T16:39:16.869Z,8.80
2023-02-11T16:41:45.519Z,8.70
2023-02-11T16:44:13.980Z,8.70
2023-02-11T16:46:44.082Z,8.70
2023-02-11T16:49:19.340Z,8.60
2023-02-11T16:51:50.813Z,8.60
2023-02-11T16:54:21.377Z,8.90
2023-02-11T16:56:50.268Z,8.70
2023-02-11T16:59:18.603Z,8.70
2023-02-11T17:01:49.757Z,8.60
2023-02-11T17:04:21.344Z,8.60
2023-02-11T17:06:49.829Z,8.60
2023-02-11T17:09:21.838Z,8.60
2023-02-11T17:11:51.071Z,8.80
2023-02-11T17:14:20.354Z,8.60
2023-02-11T17:16:50.111Z,8.60
2023-02-11T17:19:21.173Z,8.70
2023-02-11T17:21:52.704Z,8.60
2023-02-11T17:24:22.238Z,8.60
2023-02-11T17:26:51.692Z,8.60
2023-02-11T17:29:23.038Z,8.60
2023-02-11T17:31:53.837Z,8.60
2023-02-11T17:34:23.861Z,8.60
2023-02-11T17:36:52.619Z,8.80
2023-02-11T17:39:21.244Z,8.80
2023-02-11T17:41:49.671Z,8.60
2023-02-11T17:44:18.094Z,8.80
2023-02-11T17:46:46.436Z,8.60
2023-02-11T17:49:16.543Z,8.60
2023-02-11T17:51:45.102Z,8.60
2023-02-11T17:54:15.896Z,8.60
2023-02-11T17:56:44.308Z,8.60
2023-02-11T17:59:14.271Z,8.60
2023-02-11T18:01:43.866Z,8.70
2023-02-11T18:04:18.173Z,8.60
2023-02-11T18:06:47.130Z,8.60
2023-02-11T18:09:15.491Z,8.60
2023-02-11T18:11:43.813Z,8.60
2023-02-11T18:14:12.928Z,8.60
2023-02-11T18:16:43.667Z,8.60
2023-02-11T18:19:13.830Z,8.60
2023-02-11T18:21:44.208Z,8.60
2023-02-11T18:24:13.191Z,8.60
2023-02-11T18:26:41.769Z,8.60
2023-02-11T18:29:10.639Z,8.60
2023-02-11T18:31:39.521Z,8.60
2023-02-11T18:34:10.700Z,8.60
2023-02-11T18:36:39.532Z,8.60
2023-02-11T18:39:09.316Z,8.60
2023-02-11T18:41:40.074Z,8.80
2023-02-11T18:44:09.203Z,8.60
2023-02-11T18:46:37.562Z,8.80
2023-02-11T18:49:05.995Z,8.60
2023-02-11T18:51:34.722Z,8.60
2023-02-11T18:54:03.331Z,9.00
2023-02-11T18:56:33.233Z,8.60
2023-02-11T18:59:02.610Z,8.90
2023-02-11T19:01:34.379Z,8.60
2023-02-11T19:04:06.712Z,8.60
2023-02-11T19:06:38.194Z,8.60
2023-02-11T19:09:11.285Z,8.60
2023-02-11T19:11:50.985Z,8.60
2023-02-11T19:14:23.792Z,8.60
2023-02-11T19:16:54.593Z,8.60
2023-02-11T19:19:28.018Z,8.60
2023-02-11T19:21:58.582Z,8.60
2023-02-11T19:24:28.868Z,8.60
2023-02-11T19:27:04.795Z,9.50
2023-02-11T19:29:35.344Z,8.60
2023-02-11T19:32:05.900Z,8.70
2023-02-11T19:34:41.128Z,8.30
2023-02-11T19:37:12.664Z,8.60
2023-02-11T19:39:42.417Z,9.20
2023-02-11T19:42:13.508Z,8.60
2023-02-11T19:44:42.220Z,8.60
2023-02-11T19:47:12.725Z,8.60
2023-02-11T19:49:41.168Z,8.60
2023-02-11T19:52:10.301Z,8.60
2023-02-11T19:54:40.508Z,8.60
2023-02-11T19:57:09.399Z,8.60
2023-02-11T19:59:39.728Z,9.30
2023-02-11T20:02:08.833Z,9.10
2023-02-11T20:04:38.008Z,8.60
2023-02-11T20:07:07.138Z,8.60
2023-02-11T20:09:35.553Z,9.50
2023-02-11T20:12:04.614Z,8.60
2023-02-11T20:14:35.510Z,9.30
2023-02-11T20:17:14.005Z,8.60
2023-02-11T20:19:43.608Z,9.20
2023-02-11T20:22:17.059Z,8.70
2023-02-11T20:35:32.514Z,8.70
2023-02-11T20:50:37.509Z,8.60
2023-02-11T20:57:00.711Z,8.50
2023-02-11T21:06:38.293Z,8.50
2023-02-11T21:09:19.213Z,8.50
2023-02-11T21:12:14.827Z,8.40
2023-02-11T21:14:46.224Z,8.40
2023-02-11T21:17:15.457Z,8.60
2023-02-11T21:20:16.643Z,8.40
2023-02-11T21:26:50.745Z,8.40
2023-02-11T21:29:19.822Z,8.40
2023-02-11T21:31:49.705Z,8.70
2023-02-11T21:34:21.336Z,9.70
2023-02-11T21:36:56.922Z,8.50
2023-02-11T21:39:26.155Z,9.50
2023-02-11T21:41:59.903Z,9.50
2023-02-11T21:44:32.103Z,8.50
2023-02-11T21:47:02.219Z,8.90
2023-02-11T21:49:31.850Z,8.50
2023-02-11T21:52:00.800Z,8.50
2023-02-11T21:54:32.552Z,8.50
2023-02-11T21:57:09.184Z,8.60
2023-02-11T21:59:38.793Z,9.20
2023-02-11T22:02:12.826Z,8.50
2023-02-11T22:04:42.469Z,8.70
2023-02-11T22:07:16.107Z,8.70
2023-02-11T22:09:59.593Z,8.80
2023-02-11T22:12:31.253Z,8.60
2023-02-11T22:15:07.390Z,8.80
2023-02-11T22:17:51.954Z,8.60
2023-02-11T22:20:21.700Z,8.60
2023-02-11T22:22:57.919Z,8.60
2023-02-11T22:25:38.617Z,9.40
2023-02-11T22:28:27.586Z,8.60
2023-02-11T22:30:58.112Z,8.60
2023-02-11T22:33:29.480Z,8.60
2023-02-11T22:36:08.189Z,9.70
2023-02-11T22:38:40.656Z,8.60
2023-02-11T22:41:11.917Z,9.70
2023-02-11T22:43:44.574Z,8.60
2023-02-11T22:46:19.263Z,8.60
2023-02-11T22:48:48.935Z,8.60
2023-02-11T22:51:22.856Z,8.60
2023-02-11T22:53:56.746Z,8.70
2023-02-11T22:56:26.829Z,8.60
2023-02-11T22:58:58.462Z,8.60
2023-02-11T23:01:27.603Z,8.50
2023-02-11T23:03:56.356Z,9.20
2023-02-11T23:06:25.260Z,8.60
2023-02-11T23:08:53.949Z,9.10
2023-02-11T23:11:25.492Z,8.40
2023-02-11T23:13:56.709Z,8.80
2023-02-11T23:16:28.423Z,8.70
2023-02-11T23:19:00.273Z,8.40
2023-02-11T23:21:32.333Z,8.80
2023-02-11T23:24:04.668Z,9.40
2023-02-11T23:26:33.635Z,8.70
2023-02-11T23:29:04.117Z,8.60
2023-02-11T23:31:37.673Z,8.70
2023-02-11T23:34:07.311Z,9.00
2023-02-11T23:36:37.388Z,8.70
2023-02-11T23:39:06.260Z,8.90
2023-02-11T23:41:43.917Z,8.70
2023-02-11T23:44:14.881Z,8.60
2023-02-11T23:46:43.878Z,8.70
2023-02-11T23:49:12.406Z,9.10
2023-02-11T23:51:43.648Z,9.00
